Duke Street, Reading, Berkshire, RG1 4RU, United Kingdom

Camera Oscura

Reading Town Centre Webcam

Oscura's Reading Webcam is aimed out of our top floor offices in Duke Street, central Reading town centre, Berkshire. Our camera is facing South West with a view of the Reading Oracle Shopping Centre.

Current weather conditions and forecast for Reading, Berkshire

When Temp Weather Wind Cloud Humidity Rain Snow
Now 7C Cloudy 4mph NW 98% 97% 23% 0%
23 Mar 09:00 8C Cloudy 6mph NNE 100% 91% 23% 0%
23 Mar 12:00 8C Partly Cloudy 11mph NNE 100% 79% 23% 0%
23 Mar 15:00 10C Partly Cloudy 11mph ENE 84% 76% 0% 0%
23 Mar 18:00 10C Cloudy 6mph E 94% 80% 23% 0%
23 Mar 21:00 9C Cloudy 4mph E 98% 81% 0% 0%
24 Mar 00:00 7C Partly Cloudy 4mph E 95% 81% 47% 0%
24 Mar 03:00 6C Cloudy 6mph NE 98% 85% 47% 0%
24 Mar 06:00 5C Partly Cloudy 4mph NE 91% 87% 23% 0%
24 Mar 09:00 4C Partly Cloudy 4mph NNE 89% 82% 23% 0%
24 Mar 12:00 8C Fair 6mph NNE 36% 65% 0% 0%
24 Mar 15:00 11C Partly Cloudy 6mph NNW 45% 64% 0% 0%
24 Mar 18:00 10C Fair 6mph NNW 27% 63% 0% 0%
24 Mar 21:00 7C Clear 4mph N 8% 79% 0% 0%
25 Mar 00:00 5C Fair 4mph N 22% 83% 0% 0%
25 Mar 03:00 3C Clear 4mph NNW 0% 85% 0% 0%
25 Mar 06:00 3C Fair 6mph NNW 38% 90% 0% 0%
25 Mar 09:00 4C Clear 6mph NNW 10% 90% 0% 0%
25 Mar 12:00 8C Clear 11mph N 1% 73% 0% 0%
25 Mar 15:00 10C Clear 11mph NNE 2% 63% 0% 0%
25 Mar 19:00 9C Clear 8mph NNE 3% 70% 0% 0%
25 Mar 22:00 5C Clear 6mph NE 0% 82% 0% 0%
26 Mar 01:00 3C Clear 2mph E 0% 80% 0% 0%
26 Mar 04:00 2C Clear 2mph SE 0% 83% 0% 0%
26 Mar 07:00 2C Clear 0mph SSE 0% 86% 0% 0%


Oscura provide website development, web server hosting, Internet services and IT Support in Reading and the surrounding area.